createdAt,value
2019-01-12T00:01:54.640Z,6.60
2019-01-12T00:04:25.111Z,6.70
2019-01-12T00:06:55.551Z,6.70
2019-01-12T00:09:26.081Z,6.70
2019-01-12T00:11:56.582Z,6.70
2019-01-12T00:14:27.016Z,6.50
2019-01-12T00:16:57.470Z,6.60
2019-01-12T00:19:28.200Z,6.70
2019-01-12T00:21:58.734Z,6.80
2019-01-12T00:24:31.718Z,6.70
2019-01-12T00:27:01.574Z,6.80
2019-01-12T00:29:32.109Z,6.70
2019-01-12T00:32:02.560Z,6.80
2019-01-12T00:34:33.004Z,6.90
2019-01-12T00:37:03.510Z,7.00
2019-01-12T00:39:33.922Z,7.00
2019-01-12T00:42:04.421Z,7.10
2019-01-12T00:44:34.838Z,7.00
2019-01-12T00:47:05.297Z,6.80
2019-01-12T00:49:35.734Z,6.90
2019-01-12T00:52:06.346Z,7.00
2019-01-12T00:54:38.590Z,7.10
2019-01-12T00:57:08.967Z,7.10
2019-01-12T00:59:39.513Z,7.20
2019-01-12T01:02:10.077Z,7.10
2019-01-12T01:04:40.514Z,7.00
2019-01-12T01:07:11.109Z,7.10
2019-01-12T01:09:41.549Z,7.10
2019-01-12T01:12:12.086Z,7.20
2019-01-12T01:14:42.521Z,7.10
2019-01-12T01:17:12.974Z,7.20
2019-01-12T01:19:43.615Z,7.00
2019-01-12T01:22:14.071Z,7.00
2019-01-12T01:24:45.990Z,7.10
2019-01-12T01:27:16.720Z,7.10
2019-01-12T01:29:47.158Z,7.20
2019-01-12T01:32:17.614Z,7.10
2019-01-12T01:34:48.025Z,7.20
2019-01-12T01:37:18.615Z,7.20
2019-01-12T01:39:49.043Z,7.10
2019-01-12T01:42:19.497Z,7.00
2019-01-12T01:44:49.937Z,7.10
2019-01-12T01:47:20.701Z,7.00
2019-01-12T01:49:51.113Z,7.00
2019-01-12T01:52:21.670Z,7.10
2019-01-12T01:54:52.958Z,7.10
2019-01-12T01:57:23.653Z,7.30
2019-01-12T01:59:54.060Z,7.30
2019-01-12T02:02:24.492Z,7.30
2019-01-12T02:04:54.937Z,7.40
2019-01-12T02:07:25.383Z,7.40
2019-01-12T02:09:55.890Z,7.50
2019-01-12T02:12:26.437Z,7.50
2019-01-12T02:14:56.979Z,7.50
2019-01-12T02:17:27.432Z,7.50
2019-01-12T02:19:57.836Z,7.60
2019-01-12T02:22:28.261Z,7.60
2019-01-12T02:25:00.161Z,7.60
2019-01-12T02:27:30.735Z,7.60
2019-01-12T02:30:01.192Z,7.50
2019-01-12T02:32:31.707Z,7.50
2019-01-12T02:35:02.252Z,7.70
2019-01-12T02:37:32.675Z,7.70
2019-01-12T02:40:03.127Z,7.80
2019-01-12T02:42:33.543Z,7.70
2019-01-12T02:45:03.956Z,7.70
2019-01-12T02:47:34.621Z,7.70
2019-01-12T02:50:06.337Z,7.70
2019-01-12T02:52:36.793Z,7.60
2019-01-12T02:55:08.986Z,7.80
2019-01-12T02:57:39.724Z,7.70
2019-01-12T03:00:18.094Z,7.70
2019-01-12T03:02:48.518Z,7.80
2019-01-12T03:05:18.944Z,7.80
2019-01-12T03:07:49.374Z,7.80
2019-01-12T03:10:20.335Z,7.90
2019-01-12T03:12:50.787Z,7.90
2019-01-12T03:15:21.271Z,7.80
2019-01-12T03:17:51.657Z,7.70
2019-01-12T03:20:22.104Z,7.70
2019-01-12T03:22:52.499Z,7.60
2019-01-12T03:25:23.172Z,7.70
2019-01-12T03:27:53.555Z,7.70
2019-01-12T03:30:23.953Z,7.70
2019-01-12T03:32:54.377Z,7.70
2019-01-12T03:35:25.025Z,7.80
2019-01-12T03:37:55.439Z,7.80
2019-01-12T03:40:25.917Z,7.80
2019-01-12T03:42:56.355Z,7.70
2019-01-12T03:45:26.817Z,7.70
2019-01-12T03:47:57.244Z,7.80
2019-01-12T03:50:27.706Z,7.90
2019-01-12T03:52:58.270Z,7.80
2019-01-12T03:55:28.737Z,7.90
2019-01-12T03:57:59.161Z,7.80
2019-01-12T04:00:29.668Z,7.80
2019-01-12T04:03:00.137Z,7.90
2019-01-12T04:05:30.612Z,7.90
2019-01-12T04:08:01.049Z,7.80
2019-01-12T04:10:31.500Z,7.90
2019-01-12T04:13:01.925Z,7.90
2019-01-12T04:15:32.354Z,7.90
2019-01-12T04:18:02.811Z,7.80
2019-01-12T04:20:33.213Z,7.80
2019-01-12T04:23:03.675Z,7.80
2019-01-12T04:25:34.588Z,7.80
2019-01-12T04:28:05.157Z,7.80
2019-01-12T04:30:35.614Z,7.90
2019-01-12T04:33:06.067Z,7.90
2019-01-12T04:35:36.486Z,8.00
2019-01-12T04:38:06.908Z,7.90
2019-01-12T04:40:37.313Z,7.80
2019-01-12T04:43:07.718Z,7.90
2019-01-12T04:45:38.155Z,7.90
2019-01-12T04:48:08.585Z,8.00
2019-01-12T04:50:39.038Z,8.00
2019-01-12T04:53:09.488Z,8.00
2019-01-12T04:55:41.595Z,8.00
2019-01-12T04:58:12.108Z,8.00
2019-01-12T05:00:42.522Z,7.90
2019-01-12T05:03:12.944Z,7.90
2019-01-12T05:05:43.403Z,7.80
2019-01-12T05:08:13.841Z,7.70
2019-01-12T05:10:44.273Z,7.60
2019-01-12T05:13:14.702Z,7.70
2019-01-12T05:15:45.104Z,7.70
2019-01-12T05:18:15.526Z,7.70
2019-01-12T05:20:45.957Z,7.70
2019-01-12T05:23:16.367Z,7.70
2019-01-12T05:25:49.033Z,7.70
2019-01-12T05:28:18.935Z,7.70
2019-01-12T05:30:49.365Z,7.70
2019-01-12T05:33:19.807Z,7.70
2019-01-12T05:35:50.198Z,7.80
2019-01-12T05:38:20.617Z,7.80
2019-01-12T05:40:51.003Z,7.70
2019-01-12T05:43:21.408Z,7.70
2019-01-12T05:45:51.796Z,7.70
2019-01-12T05:48:22.222Z,7.70
2019-01-12T05:50:52.628Z,7.60
2019-01-12T05:53:23.064Z,7.60
2019-01-12T05:55:58.066Z,7.60
2019-01-12T05:58:25.707Z,7.60
2019-01-12T06:00:56.108Z,7.60
2019-01-12T06:03:26.550Z,7.60
2019-01-12T06:05:56.979Z,7.60
2019-01-12T06:08:27.407Z,7.50
2019-01-12T06:10:57.855Z,7.40
2019-01-12T06:13:28.328Z,7.30
2019-01-12T06:15:58.755Z,7.20
2019-01-12T06:18:29.195Z,7.10
2019-01-12T06:20:59.600Z,7.00
2019-01-12T06:23:29.999Z,7.00
2019-01-12T06:26:04.079Z,7.10
2019-01-12T06:28:32.639Z,7.10
2019-01-12T06:31:03.065Z,7.20
2019-01-12T06:33:33.506Z,7.10
2019-01-12T06:36:04.058Z,7.00
2019-01-12T06:38:34.502Z,7.10
2019-01-12T06:41:04.891Z,7.10
2019-01-12T06:43:35.335Z,7.10
2019-01-12T06:46:05.783Z,7.20
2019-01-12T06:48:36.200Z,6.90
2019-01-12T06:51:06.707Z,7.00
2019-01-12T06:53:37.157Z,7.10
2019-01-12T06:56:10.926Z,7.10
2019-01-12T06:58:39.921Z,7.10
2019-01-12T07:01:10.380Z,7.20
2019-01-12T07:03:40.887Z,7.20
2019-01-12T07:06:11.300Z,7.20
2019-01-12T07:08:41.711Z,7.30
2019-01-12T07:11:12.117Z,7.30
2019-01-12T07:13:42.520Z,7.40
2019-01-12T07:16:12.954Z,7.40
2019-01-12T07:18:43.408Z,7.40
2019-01-12T07:21:13.849Z,7.40
2019-01-12T07:23:44.231Z,7.40
2019-01-12T07:26:17.590Z,7.40
2019-01-12T07:28:46.838Z,7.40
2019-01-12T07:31:17.267Z,7.50
2019-01-12T07:33:47.695Z,7.50
2019-01-12T07:36:18.134Z,7.40
2019-01-12T07:38:48.683Z,7.50
2019-01-12T07:41:19.214Z,7.30
2019-01-12T07:43:49.736Z,7.40
2019-01-12T07:46:20.463Z,7.40
2019-01-12T07:48:50.912Z,7.40
2019-01-12T07:51:21.399Z,7.50
2019-01-12T07:53:51.922Z,7.60
2019-01-12T07:56:24.676Z,7.40
2019-01-12T07:58:54.569Z,7.50
2019-01-12T08:01:24.999Z,7.50
2019-01-12T08:03:55.446Z,7.50
2019-01-12T08:06:25.891Z,7.40
2019-01-12T08:08:56.488Z,7.40
2019-01-12T08:11:26.921Z,7.50
2019-01-12T08:13:57.380Z,7.60
2019-01-12T08:16:27.848Z,7.70
2019-01-12T08:18:58.309Z,7.60
2019-01-12T08:21:28.804Z,7.70
2019-01-12T08:23:59.187Z,7.80
2019-01-12T08:26:31.236Z,7.70
2019-01-12T08:29:01.906Z,7.90
2019-01-12T08:31:32.333Z,8.00
2019-01-12T08:34:02.815Z,8.00
2019-01-12T08:36:33.306Z,8.10
2019-01-12T08:39:04.702Z,8.10
2019-01-12T08:41:35.164Z,8.00
2019-01-12T08:44:05.661Z,8.00
2019-01-12T08:46:36.059Z,8.10
2019-01-12T08:49:06.694Z,8.10
2019-01-12T08:51:37.124Z,8.20
2019-01-12T08:54:07.615Z,8.20
2019-01-12T08:56:38.631Z,8.30
2019-01-12T08:59:09.241Z,8.30
2019-01-12T09:01:39.650Z,8.50
2019-01-12T09:04:10.458Z,8.60
2019-01-12T09:06:40.938Z,8.30
2019-01-12T09:09:11.452Z,8.30
2019-01-12T09:11:42.241Z,8.40
2019-01-12T09:14:12.794Z,8.30
2019-01-12T09:16:43.223Z,8.30
2019-01-12T09:19:13.767Z,8.30
2019-01-12T09:21:44.183Z,8.20
2019-01-12T09:24:14.617Z,8.10
2019-01-12T09:26:45.170Z,8.00
2019-01-12T09:29:15.695Z,8.20
2019-01-12T09:31:46.103Z,8.30
2019-01-12T09:34:16.543Z,8.40
2019-01-12T09:36:46.977Z,8.40
2019-01-12T09:39:17.392Z,8.50
2019-01-12T09:41:47.836Z,8.40
2019-01-12T09:44:18.221Z,8.40
2019-01-12T09:46:48.637Z,8.20
2019-01-12T09:49:19.081Z,8.10
2019-01-12T09:51:49.580Z,8.00
2019-01-12T09:54:20.005Z,7.90
2019-01-12T09:56:51.903Z,7.90
2019-01-12T09:59:22.526Z,7.90
2019-01-12T10:01:53.099Z,8.00
2019-01-12T10:04:23.530Z,8.00
2019-01-12T10:06:55.816Z,8.10
2019-01-12T10:09:26.510Z,8.10
2019-01-12T10:11:56.908Z,8.20
2019-01-12T10:14:27.316Z,8.20
2019-01-12T10:16:58.634Z,7.90
2019-01-12T10:19:30.959Z,7.90
2019-01-12T10:22:01.409Z,8.00
2019-01-12T10:24:31.929Z,8.10
2019-01-12T10:27:02.411Z,8.20
2019-01-12T10:29:32.798Z,8.20
2019-01-12T10:32:03.247Z,8.10
2019-01-12T10:34:33.724Z,8.20
2019-01-12T10:37:06.188Z,8.10
2019-01-12T10:39:36.551Z,7.90
2019-01-12T10:42:07.283Z,7.90
2019-01-12T10:44:37.732Z,7.90
2019-01-12T10:47:08.183Z,7.60
2019-01-12T10:49:38.621Z,7.60
2019-01-12T10:52:09.042Z,7.70
2019-01-12T10:54:39.477Z,7.70
2019-01-12T10:57:10.012Z,7.80
2019-01-12T10:59:40.549Z,7.70
2019-01-12T11:02:10.982Z,7.60
2019-01-12T11:04:41.420Z,7.60
2019-01-12T11:07:19.055Z,7.70
2019-01-12T11:09:50.015Z,7.70
2019-01-12T11:12:20.674Z,7.70
2019-01-12T11:14:51.691Z,7.80
2019-01-12T11:17:22.127Z,7.60
2019-01-12T11:19:53.947Z,7.60
2019-01-12T11:22:24.952Z,7.70
2019-01-12T11:24:55.438Z,7.70
2019-01-12T11:27:25.845Z,7.80
2019-01-12T11:29:56.296Z,7.90
2019-01-12T11:32:26.835Z,7.90
2019-01-12T11:34:57.291Z,7.90
2019-01-12T11:37:27.849Z,7.80
2019-01-12T11:39:58.286Z,7.70
2019-01-12T11:42:28.749Z,7.80
2019-01-12T11:44:59.153Z,7.90
2019-01-12T11:47:29.551Z,7.90
2019-01-12T11:49:59.951Z,7.90
2019-01-12T11:52:30.432Z,7.80
2019-01-12T11:55:00.851Z,7.80
2019-01-12T11:57:31.374Z,7.80
2019-01-12T12:00:01.887Z,7.70
2019-01-12T12:02:37.655Z,7.70
2019-01-12T12:05:04.700Z,7.70
2019-01-12T12:07:35.177Z,7.70
2019-01-12T12:10:06.462Z,7.70
2019-01-12T12:12:36.967Z,7.70
2019-01-12T12:15:09.871Z,7.70
2019-01-12T12:17:40.314Z,7.70
2019-01-12T12:20:17.691Z,7.70
2019-01-12T12:22:48.225Z,7.90
2019-01-12T12:25:18.852Z,7.80
2019-01-12T12:27:49.307Z,7.90
2019-01-12T12:30:23.264Z,7.90
2019-01-12T12:32:53.683Z,7.80
2019-01-12T12:35:24.169Z,7.70
2019-01-12T12:37:54.598Z,7.90
2019-01-12T12:40:27.805Z,7.80
2019-01-12T12:42:58.241Z,7.80
2019-01-12T12:45:34.945Z,8.00
2019-01-12T12:48:06.451Z,7.90
2019-01-12T12:50:36.956Z,8.00
2019-01-12T12:53:07.392Z,8.10
2019-01-12T12:55:37.820Z,8.00
2019-01-12T12:58:08.597Z,8.10
2019-01-12T13:00:39.046Z,8.20
2019-01-12T13:03:09.544Z,8.20
2019-01-12T13:05:40.139Z,8.20
2019-01-12T13:08:10.576Z,8.10
2019-01-12T13:10:41.097Z,8.20
2019-01-12T13:13:11.720Z,8.30
2019-01-12T13:15:42.538Z,8.30
2019-01-12T13:18:13.371Z,8.50
2019-01-12T13:20:43.955Z,8.40
2019-01-12T13:23:14.524Z,8.30
2019-01-12T13:25:44.986Z,8.10
2019-01-12T13:28:15.483Z,8.10
2019-01-12T13:30:45.937Z,8.00
2019-01-12T13:33:16.716Z,7.90
2019-01-12T13:35:47.155Z,7.90
2019-01-12T13:38:17.588Z,7.90
2019-01-12T13:40:48.047Z,7.90
2019-01-12T13:43:18.481Z,7.90
2019-01-12T13:45:48.964Z,7.80
2019-01-12T13:48:19.401Z,7.80
2019-01-12T13:50:49.921Z,7.70
2019-01-12T13:53:20.363Z,7.70
2019-01-12T13:55:50.822Z,7.70
2019-01-12T13:58:21.311Z,7.60
2019-01-12T14:00:51.765Z,7.60
2019-01-12T14:03:22.376Z,7.70
2019-01-12T14:05:52.904Z,7.70
2019-01-12T14:08:23.411Z,7.80
2019-01-12T14:10:54.063Z,7.80
2019-01-12T14:13:24.586Z,7.90
2019-01-12T14:15:55.123Z,7.90
2019-01-12T14:18:25.651Z,7.80
2019-01-12T14:20:56.215Z,7.90
2019-01-12T14:23:26.825Z,7.90
2019-01-12T14:25:57.277Z,7.80
2019-01-12T14:28:27.873Z,7.80
2019-01-12T14:30:58.293Z,7.80
2019-01-12T14:33:28.745Z,7.70
2019-01-12T14:35:59.184Z,7.80
2019-01-12T14:38:29.639Z,7.60
2019-01-12T14:41:00.072Z,7.60
2019-01-12T14:43:30.532Z,7.60
2019-01-12T14:46:01.099Z,7.60
2019-01-12T14:48:31.568Z,7.70
2019-01-12T14:51:02.039Z,7.60
2019-01-12T14:53:32.499Z,7.50
2019-01-12T14:56:02.954Z,7.50
2019-01-12T14:58:33.416Z,7.50
2019-01-12T15:01:04.113Z,7.40
2019-01-12T15:03:34.563Z,7.30
2019-01-12T15:06:05.445Z,7.20
2019-01-12T15:08:36.068Z,7.10
2019-01-12T15:11:06.710Z,7.00
2019-01-12T15:13:37.293Z,7.10
2019-01-12T15:16:08.175Z,7.00
2019-01-12T15:18:39.066Z,7.10
2019-01-12T15:21:09.521Z,7.10
2019-01-12T15:23:39.955Z,7.20
2019-01-12T15:26:10.431Z,7.30
2019-01-12T15:28:41.021Z,7.30
2019-01-12T15:31:11.673Z,7.40
2019-01-12T15:33:42.178Z,7.30
2019-01-12T15:36:12.695Z,7.40
2019-01-12T15:38:43.297Z,7.30
2019-01-12T15:41:13.959Z,7.40
2019-01-12T15:43:44.499Z,7.30
2019-01-12T15:46:14.923Z,7.30
2019-01-12T15:48:45.373Z,7.30
2019-01-12T15:51:15.875Z,7.30
2019-01-12T15:53:46.310Z,7.30
2019-01-12T15:56:16.748Z,7.40
2019-01-12T15:58:47.205Z,7.40
2019-01-12T16:01:17.667Z,7.40
2019-01-12T16:03:48.120Z,7.40
2019-01-12T16:06:18.575Z,7.40
2019-01-12T16:08:49.166Z,7.30
2019-01-12T16:11:19.750Z,7.40
2019-01-12T16:13:50.222Z,7.40
2019-01-12T16:16:20.655Z,7.40
2019-01-12T16:18:51.109Z,7.40
2019-01-12T16:21:21.702Z,7.40
2019-01-12T16:23:52.533Z,7.40
2019-01-12T16:26:22.971Z,7.40
2019-01-12T16:28:53.421Z,7.40
2019-01-12T16:31:23.859Z,7.40
2019-01-12T16:33:54.342Z,7.30
2019-01-12T16:36:24.796Z,7.40
2019-01-12T16:38:55.218Z,7.40
2019-01-12T16:41:25.893Z,7.30
2019-01-12T16:43:57.277Z,7.20
2019-01-12T16:46:27.840Z,7.10
2019-01-12T16:48:58.329Z,7.10
2019-01-12T16:51:29.270Z,7.20
2019-01-12T16:53:59.729Z,7.10
2019-01-12T16:56:30.241Z,7.00
2019-01-12T16:59:00.671Z,7.00
2019-01-12T17:01:31.161Z,7.00
2019-01-12T17:04:01.787Z,7.00
2019-01-12T17:06:32.463Z,7.00
2019-01-12T17:09:04.798Z,6.90
2019-01-12T17:11:35.277Z,6.80
2019-01-12T17:14:05.903Z,6.90
2019-01-12T17:16:36.323Z,6.80
2019-01-12T17:19:06.865Z,6.70
2019-01-12T17:21:37.326Z,6.70
2019-01-12T17:24:07.799Z,6.60
2019-01-12T17:26:38.234Z,6.60
2019-01-12T17:29:08.772Z,6.60
2019-01-12T17:31:39.283Z,6.60
2019-01-12T17:34:09.819Z,6.50
2019-01-12T17:36:40.266Z,6.50
2019-01-12T17:39:10.875Z,6.40
2019-01-12T17:41:41.341Z,6.40
2019-01-12T17:44:11.750Z,6.40
2019-01-12T17:46:42.199Z,6.40
2019-01-12T17:49:12.670Z,6.50
2019-01-12T17:51:43.111Z,6.50
2019-01-12T17:54:13.555Z,6.60
2019-01-12T17:56:43.993Z,6.60
2019-01-12T17:59:14.460Z,6.70
2019-01-12T18:01:44.905Z,6.50
2019-01-12T18:04:15.385Z,6.60
2019-01-12T18:06:45.930Z,6.50
2019-01-12T18:09:16.551Z,6.60
2019-01-12T18:11:47.010Z,6.70
2019-01-12T18:14:17.508Z,6.80
2019-01-12T18:16:48.299Z,6.80
2019-01-12T18:19:18.735Z,6.80
2019-01-12T18:21:49.547Z,6.90
2019-01-12T18:24:19.998Z,7.00
2019-01-12T18:26:50.555Z,6.90
2019-01-12T18:29:21.010Z,6.90
2019-01-12T18:31:51.617Z,6.80
2019-01-12T18:34:22.043Z,6.70
2019-01-12T18:36:52.538Z,6.70
2019-01-12T18:39:22.963Z,6.70
2019-01-12T18:41:53.429Z,6.60
2019-01-12T18:44:23.900Z,6.60
2019-01-12T18:46:54.316Z,6.60
2019-01-12T18:49:24.795Z,6.70
2019-01-12T18:51:55.184Z,6.60
2019-01-12T18:54:25.672Z,6.60
2019-01-12T18:56:56.220Z,6.70
2019-01-12T18:59:26.666Z,6.90
2019-01-12T19:01:57.253Z,6.90
2019-01-12T19:04:27.754Z,7.00
2019-01-12T19:06:58.237Z,7.00
2019-01-12T19:09:28.682Z,6.90
2019-01-12T19:11:59.160Z,6.90
2019-01-12T19:14:29.608Z,7.00
2019-01-12T19:17:00.069Z,7.00
2019-01-12T19:19:30.654Z,7.00
2019-01-12T19:22:01.192Z,7.10
2019-01-12T19:24:31.872Z,7.30
2019-01-12T19:27:02.425Z,7.40
2019-01-12T19:29:32.864Z,7.50
2019-01-12T19:32:03.327Z,7.50
2019-01-12T19:34:34.734Z,7.60
2019-01-12T19:37:05.198Z,7.70
2019-01-12T19:39:35.891Z,7.80
2019-01-12T19:42:06.347Z,7.80
2019-01-12T19:44:36.785Z,7.60
2019-01-12T19:47:07.296Z,7.60
2019-01-12T19:49:37.778Z,7.70
2019-01-12T19:52:08.366Z,7.80
2019-01-12T19:54:38.878Z,7.90
2019-01-12T19:57:09.418Z,8.00
2019-01-12T19:59:39.874Z,8.00
2019-01-12T20:02:10.324Z,8.00
2019-01-12T20:04:40.763Z,7.90
2019-01-12T20:07:11.210Z,8.00
2019-01-12T20:09:41.767Z,8.00
2019-01-12T20:12:12.399Z,8.00
2019-01-12T20:14:42.902Z,8.00
2019-01-12T20:17:13.314Z,8.10
2019-01-12T20:19:43.757Z,8.00
2019-01-12T20:22:14.228Z,8.00
2019-01-12T20:24:44.701Z,8.00
2019-01-12T20:27:15.180Z,8.00
2019-01-12T20:29:45.652Z,8.10
2019-01-12T20:32:58.584Z,8.00
2019-01-12T20:35:49.761Z,8.10
2019-01-12T20:38:41.458Z,8.00
2019-01-12T20:41:57.569Z,8.00
2019-01-12T20:45:58.077Z,8.00
2019-01-12T20:48:51.378Z,7.90
2019-01-12T20:52:23.066Z,7.90
2019-01-12T20:55:44.389Z,7.80
2019-01-12T20:58:50.606Z,7.90
2019-01-12T21:02:30.618Z,7.90
2019-01-12T21:05:48.809Z,7.90
2019-01-12T21:08:46.046Z,7.80
2019-01-12T21:12:07.821Z,7.50
2019-01-12T21:15:02.197Z,7.60
2019-01-12T21:17:32.649Z,7.70
2019-01-12T21:20:03.934Z,7.70
2019-01-12T21:22:34.535Z,7.80
2019-01-12T21:25:06.073Z,7.80
2019-01-12T21:27:36.541Z,7.70
2019-01-12T21:30:12.587Z,7.80
2019-01-12T21:32:43.027Z,7.80
2019-01-12T21:35:13.562Z,7.80
2019-01-12T21:37:44.127Z,7.90
2019-01-12T21:40:15.206Z,7.90
2019-01-12T21:42:46.587Z,7.90
2019-01-12T21:45:17.331Z,7.90
2019-01-12T21:47:47.755Z,8.00
2019-01-12T21:50:18.244Z,7.80
2019-01-12T21:52:48.811Z,7.90
2019-01-12T21:55:19.301Z,8.00
2019-01-12T21:57:49.798Z,8.00
2019-01-12T22:00:20.255Z,8.00
2019-01-12T22:02:50.851Z,7.90
2019-01-12T22:05:22.157Z,8.10
2019-01-12T22:07:52.880Z,8.20
2019-01-12T22:10:23.478Z,8.30
2019-01-12T22:12:53.958Z,8.20
2019-01-12T22:15:24.772Z,8.30
2019-01-12T22:17:55.214Z,8.40
2019-01-12T22:20:25.706Z,8.30
2019-01-12T22:22:56.176Z,8.30
2019-01-12T22:25:26.566Z,8.30
2019-01-12T22:27:57.151Z,8.30
2019-01-12T22:30:27.550Z,8.40
2019-01-12T22:32:57.999Z,8.30
2019-01-12T22:35:28.915Z,8.30
2019-01-12T22:37:59.369Z,8.30
2019-01-12T22:40:29.964Z,8.30
2019-01-12T22:43:00.475Z,8.30
2019-01-12T22:45:31.039Z,8.40
2019-01-12T22:48:01.506Z,8.40
2019-01-12T22:50:31.960Z,8.40
2019-01-12T22:53:02.428Z,8.50
2019-01-12T22:55:32.981Z,8.50
2019-01-12T22:58:03.428Z,8.50
2019-01-12T23:01:11.844Z,8.50
2019-01-12T23:03:48.629Z,8.50
2019-01-12T23:06:19.092Z,8.50
2019-01-12T23:08:49.555Z,8.50
2019-01-12T23:11:20.088Z,8.50
2019-01-12T23:13:50.552Z,8.50
2019-01-12T23:16:21.009Z,8.60
2019-01-12T23:18:51.437Z,8.50
2019-01-12T23:21:22.066Z,8.50
2019-01-12T23:23:52.552Z,8.50
2019-01-12T23:26:23.150Z,8.50
2019-01-12T23:28:53.609Z,8.40
2019-01-12T23:31:24.037Z,8.30
2019-01-12T23:33:54.581Z,8.30
2019-01-12T23:36:25.031Z,8.30
2019-01-12T23:38:55.479Z,8.30
2019-01-12T23:41:25.924Z,8.20
2019-01-12T23:43:56.367Z,8.20
2019-01-12T23:46:26.840Z,8.30
2019-01-12T23:48:57.299Z,8.20
2019-01-12T23:51:27.735Z,8.30
2019-01-12T23:53:58.256Z,8.30
2019-01-12T23:56:28.687Z,8.30
2019-01-12T23:58:59.104Z,8.30
